IBE19D LEPA-LEMD
Flight info
| Callsign | IBE19D |
|---|---|
| Flight time | N/A |
| Altitude | 31000 |
| Route | EPAMA N733 PRADO |
| Aircraft | A320/M-SDE3FGHIRWY/LB1 |
Departure
| Time | 2026-05-05 16:40 |
|---|---|
| Airport | Palma de Mallorca Airport (LEPA) |
Arrival
| Time | N/A |
|---|---|
| Airport | Adolfo Suárez Madrid–Barajas Airport (LEMD) |
| Time | Latitude | Longitude | Altitude | Speed | Heading |
|---|---|---|---|---|---|
| 2026-05-05 16:07 | 39.54949 | 2.73772 | 30 ft | 0 kts | 238° |
| 2026-05-05 16:11 | 39.54895 | 2.73811 | 30 ft | 0 kts | 249° |
| 2026-05-05 16:28 | 39.54900 | 2.73829 | 30 ft | 4 kts | 247° |
| 2026-05-05 16:28 | 39.54911 | 2.73861 | 30 ft | 4 kts | 243° |
| 2026-05-05 16:28 | 39.54925 | 2.73891 | 30 ft | 4 kts | 233° |
| 2026-05-05 16:28 | 39.54942 | 2.73915 | 30 ft | 4 kts | 201° |
| 2026-05-05 16:29 | 39.54957 | 2.73917 | 30 ft | 1 kts | 149° |
| 2026-05-05 16:29 | 39.54960 | 2.73914 | 30 ft | 0 kts | 149° |
| 2026-05-05 16:32 | 39.54939 | 2.73935 | 30 ft | 10 kts | 135° |
| 2026-05-05 16:32 | 39.54946 | 2.73997 | 30 ft | 7 kts | 68° |
| 2026-05-05 16:32 | 39.54977 | 2.74007 | 30 ft | 4 kts | 353° |
| 2026-05-05 16:32 | 39.55006 | 2.73989 | 30 ft | 10 kts | 329° |
| 2026-05-05 16:33 | 39.55131 | 2.73890 | 30 ft | 30 kts | 327° |
| 2026-05-05 16:33 | 39.55257 | 2.73789 | 30 ft | 11 kts | 329° |
| 2026-05-05 16:33 | 39.55316 | 2.73742 | 30 ft | 9 kts | 329° |
| 2026-05-05 16:33 | 39.55369 | 2.73701 | 30 ft | 8 kts | 329° |
| 2026-05-05 16:34 | 39.55418 | 2.73664 | 30 ft | 10 kts | 329° |
| 2026-05-05 16:34 | 39.55480 | 2.73615 | 30 ft | 10 kts | 329° |
| 2026-05-05 16:34 | 39.55556 | 2.73556 | 30 ft | 16 kts | 329° |
| 2026-05-05 16:34 | 39.55657 | 2.73514 | 30 ft | 15 kts | 33° |
| 2026-05-05 16:35 | 39.55713 | 2.73618 | 30 ft | 13 kts | 59° |
| 2026-05-05 16:35 | 39.55761 | 2.73722 | 30 ft | 16 kts | 59° |
| 2026-05-05 16:35 | 39.55823 | 2.73855 | 30 ft | 17 kts | 57° |
| 2026-05-05 16:35 | 39.55883 | 2.73981 | 30 ft | 16 kts | 58° |
| 2026-05-05 16:36 | 39.55938 | 2.74097 | 30 ft | 15 kts | 59° |
| 2026-05-05 16:36 | 39.55990 | 2.74207 | 30 ft | 14 kts | 58° |
| 2026-05-05 16:36 | 39.56039 | 2.74310 | 30 ft | 13 kts | 58° |
| 2026-05-05 16:36 | 39.56084 | 2.74405 | 30 ft | 12 kts | 58° |
| 2026-05-05 16:37 | 39.56126 | 2.74455 | 30 ft | 3 kts | 20° |
| 2026-05-05 16:37 | 39.56140 | 2.74457 | 30 ft | 0 kts | 2° |
| 2026-05-05 16:38 | 39.56170 | 2.74449 | 30 ft | 9 kts | 336° |
| 2026-05-05 16:38 | 39.56222 | 2.74408 | 30 ft | 8 kts | 329° |
| 2026-05-05 16:38 | 39.56251 | 2.74355 | 30 ft | 8 kts | 279° |
| 2026-05-05 16:38 | 39.56235 | 2.74275 | 30 ft | 10 kts | 239° |
| 2026-05-05 16:39 | 39.56197 | 2.74197 | 30 ft | 7 kts | 238° |
| 2026-05-05 16:39 | 39.56194 | 2.74190 | 30 ft | 0 kts | 238° |
| 2026-05-05 16:39 | 39.56192 | 2.74185 | 30 ft | 3 kts | 238° |
| 2026-05-05 16:40 | 39.56093 | 2.73977 | 30 ft | 64 kts | 238° |
| 2026-05-05 16:40 | 39.55743 | 2.73234 | 30 ft | 127 kts | 238° |
| 2026-05-05 16:40 | 39.55214 | 2.72108 | 310 ft | 153 kts | 239° |
| 2026-05-05 16:40 | 39.54658 | 2.70933 | 1063 ft | 151 kts | 236° |
| 2026-05-05 16:41 | 39.54067 | 2.69733 | 1636 ft | 170 kts | 236° |
| 2026-05-05 16:41 | 39.53398 | 2.68391 | 2088 ft | 188 kts | 238° |
| 2026-05-05 16:41 | 39.52643 | 2.66895 | 2679 ft | 203 kts | 238° |
| 2026-05-05 16:41 | 39.51854 | 2.65363 | 3553 ft | 206 kts | 238° |
| 2026-05-05 16:42 | 39.51048 | 2.63787 | 4342 ft | 212 kts | 238° |
| 2026-05-05 16:42 | 39.50233 | 2.62184 | 5253 ft | 213 kts | 238° |
| 2026-05-05 16:42 | 39.49417 | 2.60577 | 6147 ft | 214 kts | 238° |
| 2026-05-05 16:42 | 39.48610 | 2.58953 | 7023 ft | 215 kts | 238° |
| 2026-05-05 16:43 | 39.47792 | 2.57324 | 7856 ft | 217 kts | 237° |
| 2026-05-05 16:43 | 39.46949 | 2.55695 | 8713 ft | 219 kts | 236° |
| 2026-05-05 16:43 | 39.46101 | 2.54045 | 9587 ft | 221 kts | 237° |
| 2026-05-05 16:43 | 39.45277 | 2.52388 | 10399 ft | 223 kts | 237° |
| 2026-05-05 16:44 | 39.44640 | 2.50513 | 10968 ft | 239 kts | 260° |
| 2026-05-05 16:44 | 39.44905 | 2.48278 | 11291 ft | 273 kts | 292° |
| 2026-05-05 16:44 | 39.46040 | 2.46165 | 11660 ft | 297 kts | 300° |
| 2026-05-05 16:44 | 39.47047 | 2.43748 | 11836 ft | 312 kts | 286° |
| 2026-05-05 16:45 | 39.47587 | 2.41004 | 12165 ft | 318 kts | 276° |
| 2026-05-05 16:45 | 39.47890 | 2.38181 | 13083 ft | 317 kts | 273° |
| 2026-05-05 16:45 | 39.48134 | 2.35333 | 13678 ft | 319 kts | 272° |
| 2026-05-05 16:45 | 39.48392 | 2.32482 | 13852 ft | 318 kts | 273° |
| 2026-05-05 16:46 | 39.48682 | 2.29677 | 13958 ft | 321 kts | 274° |
| 2026-05-05 16:46 | 39.49016 | 2.26805 | 14689 ft | 323 kts | 275° |
| 2026-05-05 16:46 | 39.49364 | 2.23943 | 15490 ft | 323 kts | 274° |
| 2026-05-05 16:46 | 39.49651 | 2.21052 | 16278 ft | 323 kts | 272° |
| 2026-05-05 16:47 | 39.49887 | 2.18163 | 17044 ft | 324 kts | 271° |
| 2026-05-05 16:47 | 39.50102 | 2.15251 | 17810 ft | 325 kts | 271° |
| 2026-05-05 16:47 | 39.50312 | 2.12323 | 18497 ft | 327 kts | 271° |
| 2026-05-05 16:47 | 39.50528 | 2.09382 | 19123 ft | 329 kts | 271° |
| 2026-05-05 16:48 | 39.50751 | 2.06429 | 19744 ft | 331 kts | 271° |
| 2026-05-05 16:48 | 39.50980 | 2.03447 | 20351 ft | 334 kts | 271° |
| 2026-05-05 16:48 | 39.51211 | 2.00446 | 20960 ft | 336 kts | 271° |
| 2026-05-05 16:48 | 39.51447 | 1.97424 | 21551 ft | 338 kts | 271° |
| 2026-05-05 16:49 | 39.51683 | 1.94424 | 22125 ft | 341 kts | 271° |
| 2026-05-05 16:49 | 39.51923 | 1.91369 | 22702 ft | 343 kts | 271° |
| 2026-05-05 16:49 | 39.52163 | 1.88293 | 23333 ft | 344 kts | 271° |
| 2026-05-05 16:49 | 39.52402 | 1.85206 | 23853 ft | 345 kts | 271° |
| 2026-05-05 16:50 | 39.52640 | 1.82104 | 24322 ft | 347 kts | 271° |
| 2026-05-05 16:50 | 39.52881 | 1.78986 | 24777 ft | 349 kts | 271° |
| 2026-05-05 16:50 | 39.53119 | 1.75858 | 25221 ft | 351 kts | 271° |
| 2026-05-05 16:50 | 39.53357 | 1.72701 | 25659 ft | 353 kts | 270° |
| 2026-05-05 16:51 | 39.53596 | 1.69522 | 26096 ft | 355 kts | 270° |
| 2026-05-05 16:51 | 39.53836 | 1.66323 | 26516 ft | 358 kts | 270° |
| 2026-05-05 16:51 | 39.54075 | 1.63114 | 26930 ft | 360 kts | 270° |
| 2026-05-05 16:51 | 39.54317 | 1.59872 | 27343 ft | 362 kts | 270° |
| 2026-05-05 16:52 | 39.54560 | 1.56612 | 27756 ft | 365 kts | 270° |
| 2026-05-05 16:52 | 39.54800 | 1.53378 | 28161 ft | 367 kts | 270° |
| 2026-05-05 16:52 | 39.55043 | 1.50081 | 28630 ft | 368 kts | 270° |
| 2026-05-05 16:52 | 39.55287 | 1.46786 | 29077 ft | 369 kts | 270° |
| 2026-05-05 16:53 | 39.55533 | 1.43468 | 29486 ft | 371 kts | 270° |
| 2026-05-05 16:53 | 39.55779 | 1.40131 | 29878 ft | 373 kts | 270° |
| 2026-05-05 16:53 | 39.56025 | 1.36774 | 30206 ft | 375 kts | 270° |
| 2026-05-05 16:53 | 39.56269 | 1.33409 | 30514 ft | 377 kts | 269° |
| 2026-05-05 16:54 | 39.56512 | 1.30016 | 30801 ft | 379 kts | 269° |
| 2026-05-05 16:54 | 39.56757 | 1.26623 | 30878 ft | 373 kts | 269° |
| 2026-05-05 16:54 | 39.56995 | 1.23402 | 30889 ft | 355 kts | 269° |
| 2026-05-05 16:54 | 39.57227 | 1.20270 | 30888 ft | 346 kts | 269° |
| 2026-05-05 16:55 | 39.57669 | 1.14121 | 30915 ft | 339 kts | 269° |
| 2026-05-05 16:55 | 39.58089 | 1.08070 | 30887 ft | 336 kts | 268° |
| 2026-05-05 16:56 | 39.58502 | 1.02039 | 30887 ft | 336 kts | 268° |
| 2026-05-05 16:56 | 39.58912 | 0.96052 | 30887 ft | 335 kts | 268° |
| 2026-05-05 16:57 | 39.59325 | 0.90033 | 30883 ft | 335 kts | 268° |
| 2026-05-05 16:57 | 39.59737 | 0.84009 | 30881 ft | 335 kts | 268° |
| 2026-05-05 16:58 | 39.60146 | 0.77995 | 30881 ft | 335 kts | 268° |
| 2026-05-05 16:58 | 39.60554 | 0.71978 | 30902 ft | 334 kts | 268° |
| 2026-05-05 16:59 | 39.60955 | 0.65984 | 30901 ft | 334 kts | 268° |
| 2026-05-05 16:59 | 39.61343 | 0.60033 | 30895 ft | 333 kts | 268° |
| 2026-05-05 17:00 | 39.61737 | 0.54053 | 30890 ft | 333 kts | 268° |
| 2026-05-05 17:00 | 39.62126 | 0.48075 | 30886 ft | 332 kts | 268° |
| 2026-05-05 17:01 | 39.62511 | 0.42110 | 30882 ft | 332 kts | 268° |
| 2026-05-05 17:01 | 39.62896 | 0.36183 | 30886 ft | 332 kts | 269° |
| 2026-05-05 17:02 | 39.63275 | 0.30217 | 30882 ft | 332 kts | 268° |
| 2026-05-05 17:02 | 39.63647 | 0.24240 | 30877 ft | 332 kts | 268° |
| 2026-05-05 17:03 | 39.63960 | 0.19270 | 30875 ft | 333 kts | 269° |
| 2026-05-05 17:03 | 39.64333 | 0.13282 | 30876 ft | 333 kts | 268° |
| 2026-05-05 17:04 | 39.64699 | 0.07295 | 30876 ft | 333 kts | 268° |
| 2026-05-05 17:04 | 39.65062 | 0.01306 | 30877 ft | 333 kts | 268° |
| 2026-05-05 17:05 | 39.65432 | -0.04686 | 30900 ft | 333 kts | 271° |
| 2026-05-05 17:05 | 39.65801 | -0.10688 | 30878 ft | 334 kts | 270° |
| 2026-05-05 17:06 | 39.66154 | -0.16667 | 30863 ft | 335 kts | 270° |
| 2026-05-05 17:06 | 39.66505 | -0.22703 | 30880 ft | 335 kts | 270° |
| 2026-05-05 17:07 | 39.66855 | -0.28740 | 30876 ft | 336 kts | 270° |
| 2026-05-05 17:07 | 39.67208 | -0.34769 | 30871 ft | 335 kts | 270° |
| 2026-05-05 17:08 | 39.67553 | -0.40799 | 30869 ft | 335 kts | 270° |
| 2026-05-05 17:08 | 39.67895 | -0.46782 | 30867 ft | 335 kts | 270° |
| 2026-05-05 17:09 | 39.68235 | -0.52807 | 30878 ft | 335 kts | 270° |
| 2026-05-05 17:09 | 39.68573 | -0.58832 | 30866 ft | 335 kts | 270° |
| 2026-05-05 17:10 | 39.68903 | -0.64875 | 30877 ft | 336 kts | 270° |
| 2026-05-05 17:10 | 39.69234 | -0.70915 | 30863 ft | 336 kts | 270° |
| 2026-05-05 17:11 | 39.69561 | -0.76963 | 30923 ft | 335 kts | 270° |
| 2026-05-05 17:11 | 39.69884 | -0.82957 | 30911 ft | 334 kts | 271° |
| 2026-05-05 17:12 | 39.70205 | -0.88964 | 30909 ft | 333 kts | 271° |
| 2026-05-05 17:12 | 39.70524 | -0.94954 | 30971 ft | 332 kts | 271° |
| 2026-05-05 17:13 | 39.71671 | -1.00795 | 30973 ft | 342 kts | 290° |
| 2026-05-05 17:13 | 39.74016 | -1.06212 | 30975 ft | 344 kts | 292° |
| 2026-05-05 17:14 | 39.76379 | -1.11635 | 30972 ft | 345 kts | 292° |
| 2026-05-05 17:14 | 39.78735 | -1.17022 | 30983 ft | 345 kts | 292° |
| 2026-05-05 17:15 | 39.81091 | -1.22437 | 31000 ft | 343 kts | 292° |